アリススプリングス の空港の天気 - METARとTAF

アリス・スプリングス空港 ( YBAS / ASP ) - オーストラリア ノーザンテリトリーアリススプリングス
飛行場実況気象(Metar)
観測時間08/16 16:00 ACST (08/16 06:30 UTC)
風向・風速南南西 4m/s
視程10km以上
天気現象
なし
気温27℃
湿度7%
気圧1014hPa
METARYBAS 160630Z AUTO 20008KT 9999 // NCD 27/M11 Q1014 RF00.0/000.0 PRESENT WEATHER SENSOR US
過去の天気等 Google飛行場航空写真 Wunderground天気予報

過去48時間のMETAR

飛行場予報(TAF)
発表時間: 8/16 14:38 ACST (8/16 05:08 UTC)
予報対象時間: 16日15時 ACST ~ 17日15時 ACST
風向・風速東南東 3m/s
視程10km以上
なし
17日0時 ACST から
風向・風速西北西 3m/s
視程10km以上
なし
17日9時 ACST から
風向・風速東北東 4m/s
視程10km以上
なし
17日13時 ACST から
風向・風速北北西 3m/s
視程10km以上
なし
TAF YBAS 160508Z 1606/1706 12006KT CAVOK
FM161500 30005KT CAVOK
FM170000 06007KT CAVOK
FM170400 33006KT CAVOK